Portada
METAR-TAF:

METAR-TAF

Aeroports :

Guaymas, Mèxic

latitud: 27-58N, longitud: 110-56W, altitud: 27 m

Observació

L'informe es va fer fa 9 hores i 40 minuts, a les 01:43 UTC
Vent calma
Temperatura 30°C
Humitat 70%
Pressió 1008 hPa
Visibilitat: 8.0 km
Cel clar

METAR: MMGM 230143Z 00000KT 5SM SKC 30/24 A2976

Hora: 04:23 (11:23 UTC)

Pronòstic

L'informe es va fer fa 8 hores i 11 minuts, a les 03:12 UTC
Pronòstic vàlid del 23 a les 06 UTC al 24 a les 06 UTC
Vent kt del Nord
Visibilitat: 10 km
Cel clar
Temporalment
l' 23 a les 11 UTC al 23 a les 15 UTC
Cel ennuvolat a una alçada de 1500 ft
A partir de les 23 a les 1800 UTC
Vent 10 kt del Sud-Oest
Visibilitat: 10 km
Núvols disperses a una alçada de 3000 ft
Núvols disperses a una alçada de 25000 ft
A partir de les 24 a les 0500 UTC
Vent 5 kt del Oest/Nord-Oest
Visibilitat: 10 km
Cel clar

TAF: MMGM 230312Z 2306/2406 00000KT P6SM SKC TEMPO 2311/2315 BKN015 FM231800 23010KT P6SM SCT030 SCT250 FM240500 30005KT P6SM SKC

Observacions i pronòstics meteorològics de més de 4000 aeroports (METAR i TAF).

Les estacions disponibles són els punts grocs i vermells al mapa.

Posi el ratolí al punt desitjat per veure el nom de l'estació.

Feu clic per veure les observacions i els pronòstics meteorològics.

Per canviar el mapa: feu clic els botons verds amb una creu de color negre per apropar; al botó verd amb un guió per allunyar la imatge; o en les fletxes verdes per a mapes adjacents.


METAR-TAF: